Date,TemperatureHighF,TemperatureAvgF,TemperatureLowF,DewpointHighF,DewpointAvgF,DewpointLowF,HumidityHigh,HumidityAvg,HumidityLow,PressureMaxIn,PressureMinIn,WindSpeedMaxMPH,WindSpeedAvgMPH,GustSpeedMaxMPH,PrecipitationSumIn
2013-1-1,58.6,46.0,38.3,28.5,22.9,15.7,57,41,29,29.29,29.24,6,2,6,0.00
2013-1-2,59.5,45.8,38.1,29.6,20.6,13.5,48,37,29,29.26,29.18,7,2,7,0.00
2013-1-3,59.0,46.5,38.8,29.2,22.3,15.8,49,39,29,29.29,29.18,6,2,8,0.00
2013-1-4,57.7,47.2,40.1,30.3,25.6,19.2,53,43,32,29.32,29.24,8,2,8,0.00
2013-1-5,55.6,48.3,43.2,35.8,29.8,26.1,62,49,35,29.29,29.12,10,2,10,0.00
2013-1-6,55.4,49.2,44.6,38.4,34.6,28.3,66,58,40,29.20,29.12,9,2,9,0.28
2013-1-7,50.7,45.4,39.6,35.7,31.5,26.4,64,58,48,29.29,29.15,10,2,10,0.00
2013-1-8,60.3,49.3,43.2,35.9,32.2,27.7,66,53,34,29.26,29.18,8,1,8,0.00
2013-1-9,52.3,49.0,42.4,40.8,33.5,25.9,70,55,47,29.20,28.97,17,3,21,0.04
2013-1-10,54.7,43.7,37.0,30.1,23.8,15.5,61,46,30,29.18,29.06,8,2,8,0.00
2013-1-11,51.4,40.7,34.9,22.5,18.5,13.0,54,41,31,29.26,29.15,8,2,8,0.00
2013-1-12,48.7,38.5,31.5,19.5,13.7,7.1,51,36,31,29.26,29.15,9,2,9,0.00
2013-1-13,52.9,38.7,31.5,23.0,13.1,7.9,38,35,31,29.26,29.18,10,3,10,0.00
2013-1-14,54.3,40.6,28.9,23.5,13.7,4.7,35,33,30,29.41,29.20,8,2,8,0.00
2013-1-16,45.1,43.8,43.0,19.1,17.9,17.2,35,35,35,29.32,29.32,2,0,3,0.00
2013-1-17,66.0,50.6,38.8,33.6,21.9,13.4,36,32,28,29.32,29.24,5,1,7,0.00
2013-1-18,69.8,53.5,44.4,36.9,23.6,16.4,34,31,27,29.29,29.20,5,1,8,0.00
2013-1-19,69.1,54.0,44.6,36.4,24.7,18.6,35,32,28,29.32,29.20,3,0,6,0.00
2013-1-20,66.0,52.8,43.7,33.7,23.5,16.4,35,32,28,29.26,29.18,5,1,8,0.00
2013-1-21,65.5,52.4,44.1,33.2,23.9,16.5,37,33,30,29.24,29.15,5,1,8,0.00
2013-1-22,71.9,54.6,43.5,37.9,25.5,16.3,36,32,29,29.20,29.09,7,1,9,0.00
2013-1-23,63.0,54.8,50.5,40.5,28.6,22.9,59,37,28,29.15,29.03,7,1,10,0.00
2013-1-24,60.1,55.9,51.6,46.3,42.8,34.0,74,62,45,29.24,29.09,6,0,8,0.16
2013-1-25,68.7,60.6,56.5,56.5,45.8,37.6,88,60,35,29.24,29.09,6,0,8,0.08
2013-1-26,58.1,53.6,45.7,54.0,38.3,25.3,92,58,32,29.09,29.00,13,4,15,0.00
2013-1-27,58.5,48.1,41.5,33.3,26.6,19.4,61,44,32,29.18,29.03,6,1,8,0.00
2013-1-28,60.4,47.8,37.2,28.0,22.0,13.4,50,37,29,29.26,29.12,6,2,9,0.00
2013-1-29,62.2,49.7,41.0,31.1,24.0,18.4,48,37,29,29.32,29.26,6,1,12,0.00
2013-1-30,61.7,51.5,43.3,30.6,26.8,21.5,49,39,31,29.35,29.26,7,1,10,0.00
2013-1-31,70.0,56.0,47.1,36.8,30.8,26.0,50,39,29,29.32,29.20,5,1,8,0.00
2013-2-1,71.3,57.1,46.8,37.4,28.8,19.8,40,34,29,29.26,29.18,5,1,7,0.00
2013-2-2,68.8,56.2,50.9,36.1,30.8,25.0,48,38,30,29.29,29.24,5,1,6,0.00
2013-2-3,68.2,54.3,45.7,35.6,32.1,26.1,58,44,30,29.26,29.18,6,1,8,0.00
2013-2-4,65.2,55.2,48.4,35.3,32.2,28.7,50,42,30,29.20,29.09,6,1,12,0.00
2013-2-5,54.9,50.0,45.1,36.9,33.0,28.9,63,52,38,29.15,29.06,8,2,12,0.00
2013-2-6,65.1,50.6,40.6,34.0,28.1,22.1,60,43,29,29.18,29.12,6,2,9,0.00
2013-2-7,54.1,47.6,41.0,33.8,27.7,17.5,58,46,34,29.18,29.00,10,3,15,0.00
2013-2-8,61.9,48.6,40.1,30.7,24.2,16.1,58,39,29,29.00,28.94,8,3,12,0.00
2013-2-9,56.6,44.6,33.8,27.0,18.5,10.0,41,35,30,29.12,28.94,8,2,12,0.00
2013-2-10,63.9,49.7,40.3,30.3,23.1,17.0,43,35,28,29.15,29.06,5,1,9,0.00
2013-2-11,60.6,49.0,38.2,30.5,20.9,12.9,36,33,29,29.26,29.09,6,1,9,0.00
2013-2-12,65.7,51.1,42.8,33.4,22.7,17.0,35,33,28,29.38,29.26,6,1,9,0.00
2013-2-13,64.8,52.7,43.5,32.8,24.6,18.4,38,33,30,29.35,29.24,6,1,9,0.00
2013-2-14,68.1,54.9,44.8,35.5,27.1,20.7,43,34,30,29.26,29.20,6,1,11,0.00
2013-2-15,75.0,59.8,50.7,39.7,30.2,24.7,39,33,28,29.32,29.26,3,1,6,0.00
2013-2-16,69.9,57.7,50.2,36.6,27.7,20.7,34,32,28,29.29,29.06,5,1,6,0.00
2013-2-17,73.8,57.6,45.9,39.0,28.1,19.5,36,32,28,29.06,29.00,5,1,8,0.00
2013-2-18,59.7,50.4,46.0,31.2,25.1,21.2,44,37,32,29.06,28.94,14,4,17,0.00
2013-2-19,47.3,43.7,39.9,33.5,26.5,20.1,65,51,40,28.97,28.76,18,5,25,0.24
2013-2-20,65.4,47.7,36.3,33.0,24.7,16.4,62,42,28,29.06,28.82,6,1,12,0.00
2013-2-21,65.8,50.7,40.2,33.1,23.6,16.7,49,35,28,29.18,29.06,7,2,12,0.00
2013-2-22,64.4,51.1,40.5,32.9,23.2,15.0,36,33,31,29.26,29.18,8,2,11,0.00
2013-2-23,65.5,52.8,46.6,34.8,26.7,18.3,57,37,28,29.24,29.15,13,5,17,0.00
2013-2-24,68.3,51.3,37.6,35.4,21.7,11.7,34,31,28,29.26,29.18,7,2,10,0.00
2013-2-25,70.7,53.9,44.4,36.9,24.3,16.5,35,32,28,29.29,29.20,7,3,12,0.00
2013-2-26,71.8,54.6,39.4,37.6,24.3,14.2,36,31,28,29.24,29.15,8,4,15,0.00
2013-2-27,70.0,56.0,44.8,36.6,25.6,16.7,33,31,28,29.38,29.20,6,2,11,0.00
2013-2-28,78.5,61.4,49.8,42.7,29.9,20.3,32,30,28,29.44,29.35,6,2,10,0.00
2013-3-1,77.9,62.0,49.5,42.2,31.0,22.2,36,31,28,29.44,29.29,6,1,9,0.00
2013-3-2,73.8,63.2,56.8,39.0,32.2,27.3,35,31,28,29.29,29.12,3,1,8,0.00
2013-3-3,63.1,57.8,52.4,35.5,31.6,28.3,51,37,33,29.15,29.06,7,2,12,0.00
2013-3-4,65.8,54.9,47.8,38.7,34.4,31.1,60,47,33,29.18,29.06,7,2,10,0.00
2013-3-5,62.5,52.4,45.7,32.9,28.1,22.9,54,40,29,29.09,28.88,13,3,17,0.04
2013-3-6,56.8,50.4,47.1,36.6,27.8,21.3,62,42,32,29.09,28.91,20,6,28,0.55
2013-3-7,62.6,49.8,41.9,31.2,25.9,22.5,52,40,31,29.03,28.88,6,1,8,0.00
2013-3-8,68.4,52.8,42.8,35.8,27.5,21.7,51,38,28,29.06,28.82,8,2,13,0.00
2013-3-9,73.9,57.2,45.5,39.1,30.6,19.7,57,38,28,29.29,29.06,8,2,13,0.00
2013-3-10,66.8,54.8,44.8,34.4,26.3,17.6,44,33,30,29.38,29.26,8,1,10,0.00
2013-3-11,75.0,59.8,49.6,39.7,30.6,23.7,39,33,28,29.29,29.15,6,1,9,0.00
2013-3-12,82.6,64.4,53.4,44.6,33.4,26.6,36,32,26,29.20,29.12,6,1,9,0.00
2013-3-13,84.6,67.4,56.3,45.9,35.5,29.0,35,31,26,29.20,29.15,6,1,8,0.00
2013-3-14,79.2,67.8,60.1,42.8,35.8,29.9,36,31,27,29.20,29.12,6,1,8,0.00
2013-3-15,81.1,64.8,54.9,44.0,35.1,27.7,46,34,27,29.15,29.06,6,1,10,0.00
2013-3-16,82.3,63.6,51.8,44.7,33.8,26.5,46,33,27,29.12,29.03,7,1,11,0.00
2013-3-17,77.9,59.7,47.5,42.2,29.4,21.8,37,32,28,29.15,29.06,6,1,9,0.00
2013-3-18,71.3,60.2,50.0,37.4,29.8,22.7,34,32,29,29.12,29.06,6,1,8,0.00
2013-3-19,71.2,59.6,50.7,40.5,31.8,24.7,56,36,29,29.18,29.09,8,2,13,0.12
2013-3-20,62.9,58.9,55.9,45.7,41.6,36.9,63,53,41,29.15,29.09,13,2,15,0.35
2013-3-21,70.2,58.1,50.0,44.9,35.6,20.5,70,45,28,29.15,29.03,7,2,13,0.00
2013-3-22,66.2,50.8,43.3,33.8,22.9,17.8,49,34,28,29.09,29.03,10,3,15,0.00
2013-3-23,75.2,54.5,38.5,39.8,25.5,15.7,44,33,28,29.15,29.06,7,1,7,0.00
2013-3-24,79.9,60.9,49.5,42.9,30.1,20.0,34,31,27,29.12,29.00,8,2,8,0.00
2013-3-25,69.0,58.0,50.5,36.2,29.2,23.6,41,33,30,29.03,28.94,10,3,13,0.00
2013-3-26,73.0,57.7,46.9,38.9,31.2,24.1,51,37,29,29.03,28.97,9,4,9,0.00
2013-3-27,69.8,58.8,50.7,38.6,32.6,27.1,46,37,32,29.06,28.97,14,4,14,0.00
2013-3-28,77.7,62.6,56.5,41.8,36.2,31.9,51,38,28,29.15,29.06,8,2,8,0.00
2013-3-29,86.8,66.9,54.1,47.7,35.7,27.4,40,32,26,29.15,29.06,8,3,8,0.00
2013-3-30,77.2,64.4,56.5,41.4,34.2,29.0,39,33,28,29.09,29.03,13,3,13,0.00
2013-3-31,70.2,61.0,56.7,50.1,40.0,29.1,71,48,30,29.15,29.03,17,4,17,0.79
2013-4-1,70.7,60.8,55.0,42.7,37.2,31.4,59,43,29,29.18,29.09,10,2,10,0.00
2013-4-2,80.1,62.2,51.4,43.1,35.8,31.8,56,39,27,29.20,29.12,8,2,8,0.00
2013-4-3,81.0,64.9,54.5,43.8,37.1,30.8,50,37,27,29.15,29.03,8,3,8,0.00
2013-4-4,65.1,59.7,53.2,54.0,41.1,28.5,74,51,34,29.15,29.03,13,4,13,0.28
2013-4-5,68.4,60.0,55.4,44.5,38.0,32.6,61,45,32,29.20,29.12,12,4,12,0.00
2013-4-6,67.1,58.9,54.1,42.2,38.8,35.0,58,48,35,29.20,29.15,9,4,9,0.00
2013-4-7,66.7,57.8,51.1,42.2,36.2,30.0,57,45,35,29.18,28.85,18,7,18,0.00
2013-4-8,72.9,58.4,49.8,39.5,33.1,24.1,60,40,28,29.03,28.76,15,6,15,0.20
2013-4-9,78.3,63.1,50.2,42.5,30.8,20.7,31,30,28,29.12,29.00,13,7,13,0.00
2013-4-10,91.4,70.5,57.4,50.5,36.2,25.3,33,29,24,29.20,29.03,10,4,10,0.00
2013-4-11,84.4,67.4,55.9,45.6,37.0,29.3,47,33,26,29.03,28.88,9,2,9,0.00
2013-4-12,82.2,65.0,51.4,44.7,33.8,24.5,38,31,27,28.94,28.85,9,2,9,0.00
2013-4-13,77.4,63.7,51.6,41.7,33.4,25.5,39,33,28,28.91,28.85,8,2,8,0.00
2013-4-14,77.5,61.4,51.1,41.8,33.5,27.0,53,36,28,28.94,28.79,13,4,13,0.00
2013-4-15,63.0,52.9,47.3,36.9,31.3,25.0,58,44,31,28.91,28.85,16,5,16,0.04
2013-4-16,72.7,55.3,43.2,38.6,28.3,20.0,53,37,28,29.18,28.91,14,5,14,0.00
2013-4-17,74.7,59.3,45.9,39.2,27.7,17.6,32,30,28,29.24,29.18,17,7,17,0.00
2013-4-18,79.5,62.0,45.9,42.8,29.8,17.6,32,30,27,29.29,29.20,12,3,12,0.00
2013-4-19,85.5,67.9,55.0,46.7,34.9,26.0,33,30,26,29.26,29.09,9,3,9,0.00
2013-4-20,88.0,69.3,53.8,48.5,36.2,25.8,35,30,25,29.12,29.03,8,3,8,0.00
2013-4-21,92.8,72.9,58.5,50.7,38.4,28.7,32,29,24,29.06,29.00,8,3,8,0.00
2013-4-22,94.1,74.0,60.3,51.8,39.0,29.9,32,28,24,29.03,28.88,9,3,9,0.00
2013-4-23,90.7,71.3,54.7,50.0,36.7,23.8,33,28,25,28.97,28.88,8,2,8,0.00
2013-4-24,96.1,71.3,55.0,53.5,37.5,26.0,45,30,24,28.94,28.82,15,4,15,0.00
2013-4-25,75.4,61.2,52.0,40.0,35.1,31.0,54,39,28,29.15,28.94,13,6,13,0.00
2013-4-26,87.3,65.9,52.2,48.2,37.6,32.7,51,37,26,29.24,29.12,9,3,9,0.00
2013-4-27,94.3,71.2,53.2,51.9,39.6,29.5,49,33,24,29.24,29.09,8,2,8,0.00
2013-4-28,95.5,75.5,57.6,53.0,40.9,31.4,42,30,24,29.09,28.91,8,2,8,0.00
2013-4-29,95.5,77.2,63.3,53.0,41.5,33.7,33,28,24,28.94,28.79,8,2,9,0.00
2013-4-30,88.7,72.3,60.1,48.5,38.1,29.9,34,29,25,28.88,28.79,12,3,12,0.00
2013-5-1,94.1,74.3,55.8,51.8,38.5,24.8,30,28,24,29.12,28.88,10,4,10,0.00
2013-5-2,98.1,78.5,63.5,53.9,41.8,29.6,31,27,23,29.20,29.09,12,2,12,0.00
2013-5-3,97.7,78.6,63.9,53.9,42.0,32.3,31,27,23,29.12,28.82,10,3,11,0.00
2013-5-4,94.1,77.6,62.2,51.8,41.4,30.9,31,28,24,28.82,28.58,9,4,9,0.00
2013-5-5,77.7,64.0,54.1,42.0,34.2,26.8,46,33,28,28.85,28.61,13,5,13,0.00
2013-5-6,74.5,63.5,58.3,42.7,36.3,30.6,54,37,28,28.97,28.85,13,4,13,0.04
2013-5-7,72.3,64.0,58.8,44.4,38.2,33.1,56,39,29,29.06,28.97,8,3,8,0.00
2013-5-8,76.8,64.8,56.7,41.9,36.5,31.0,51,36,28,29.12,29.03,10,4,10,0.00
2013-5-9,85.6,66.5,54.9,46.8,38.9,32.9,55,38,26,29.15,29.03,13,4,13,0.00
2013-5-10,89.8,70.3,55.6,49.3,40.7,33.7,54,36,25,29.18,29.06,8,3,8,0.00
2013-5-11,97.0,77.8,60.1,53.9,43.7,34.2,45,31,23,29.12,29.03,8,2,8,0.00
2013-5-12,96.1,78.8,65.3,53.5,43.5,35.9,43,29,24,29.12,29.00,12,3,12,0.00
2013-5-13,95.5,76.8,61.0,53.0,41.2,30.6,34,28,24,29.06,28.91,10,4,10,0.00
2013-5-14,92.1,73.7,59.9,50.5,40.0,32.3,37,30,24,28.94,28.88,13,4,13,0.00
2013-5-15,79.7,66.2,55.2,42.8,34.3,26.2,35,31,27,29.00,28.94,13,6,13,0.00
2013-5-16,72.7,62.1,55.6,38.6,33.0,28.7,45,34,29,29.00,28.91,17,7,17,0.00
2013-5-17,77.9,62.0,51.8,42.2,33.8,26.0,49,36,28,29.03,28.91,12,6,12,0.00
2013-5-18,87.4,66.4,48.9,48.3,34.6,23.6,41,31,26,29.06,29.00,6,2,6,0.00
2013-5-19,88.9,72.0,57.0,48.5,38.3,29.1,35,30,25,29.06,28.91,13,3,13,0.00
2013-5-20,93.4,76.1,59.9,51.2,40.1,27.5,32,28,24,28.97,28.88,9,3,9,0.00
2013-5-21,81.7,68.2,57.0,44.4,35.4,27.7,35,30,27,28.88,28.82,17,6,17,0.00
2013-5-22,77.4,60.7,46.8,41.7,29.1,18.4,35,30,28,28.91,28.82,15,4,15,0.00
2013-5-23,81.0,61.2,47.1,43.8,30.7,21.9,39,32,27,28.91,28.82,10,4,10,0.00
2013-5-24,81.9,64.4,51.3,44.6,32.6,23.6,34,31,27,28.94,28.85,12,4,12,0.00
2013-5-25,78.8,62.9,50.4,42.8,32.0,23.3,36,32,27,28.94,28.88,10,4,10,0.00
2013-5-26,80.1,63.5,52.3,43.1,34.5,27.2,47,34,27,29.03,28.94,12,6,12,0.00
2013-5-27,64.9,59.5,52.9,49.9,33.4,28.2,70,38,31,29.03,28.94,10,6,10,0.04
2013-5-28,82.6,67.7,59.7,54.1,44.1,33.2,79,47,26,28.94,28.82,12,3,12,0.08
2013-5-29,83.8,68.3,58.3,45.3,38.4,32.4,54,34,26,28.88,28.79,13,4,13,0.00
2013-5-30,90.5,71.2,55.9,49.9,39.4,32.3,46,33,25,28.91,28.85,8,2,8,0.00
2013-5-31,96.3,76.1,32.0,53.6,40.4,16.8,53,28,24,28.91,28.85,9,2,9,0.00
2013-6-1,101.3,82.2,65.5,55.7,44.3,33.2,30,27,22,28.85,28.70,8,2,8,0.00
2013-6-2,100.6,81.8,64.4,55.7,44.1,32.3,33,27,22,28.70,28.58,8,2,8,0.00
2013-6-3,97.5,75.4,61.5,53.9,40.6,32.5,34,29,23,28.73,28.61,12,4,12,0.00
2013-6-4,84.6,68.0,56.7,45.9,37.7,31.6,47,34,26,28.85,28.73,12,6,12,0.00
2013-6-5,90.3,70.0,55.8,49.7,39.9,33.5,51,35,25,28.91,28.79,10,5,10,0.00
2013-6-6,97.7,74.7,57.0,53.9,41.2,30.5,45,31,23,28.85,28.73,12,4,12,0.00
2013-6-7,106.7,83.1,62.1,59.7,46.3,33.9,44,29,22,28.79,28.64,10,2,10,0.00
2013-6-8,110.8,89.9,71.6,63.1,49.4,38.1,31,25,22,28.67,28.58,8,3,8,0.00
2013-6-9,82.6,69.6,61.3,44.9,38.2,33.1,41,32,27,28.79,28.67,15,7,15,0.00
2013-6-10,75.6,64.5,58.1,40.5,37.0,32.9,50,37,28,28.88,28.73,14,5,14,0.00
2013-6-11,89.1,71.6,57.6,48.7,40.5,34.0,48,34,25,28.91,28.79,12,3,12,0.00
2013-6-12,89.1,73.4,60.4,48.7,39.3,31.9,36,29,25,28.88,28.82,13,5,13,0.00
2013-6-13,91.0,71.9,54.1,50.3,37.7,26.5,35,29,25,28.97,28.85,10,4,11,0.00
2013-6-14,93.0,75.0,57.9,50.9,39.7,28.0,32,28,24,28.88,28.73,9,3,9,0.00
2013-6-15,92.1,75.4,62.6,50.5,40.0,31.5,31,28,24,28.85,28.73,12,4,12,0.00
2013-6-16,95.9,74.6,57.7,53.3,39.7,29.5,34,29,24,28.94,28.85,12,4,12,0.00
2013-6-17,88.9,72.1,59.0,48.5,38.4,30.6,36,30,25,28.94,28.88,14,6,14,0.00
2013-6-18,78.3,65.3,57.0,42.5,36.2,29.1,48,35,28,28.91,28.82,15,7,15,0.00
2013-6-19,84.6,67.6,54.1,45.9,36.4,28.7,45,32,26,28.94,28.88,12,4,12,0.00
2013-6-20,88.9,71.7,55.4,48.5,37.8,26.0,35,29,25,28.88,28.82,10,2,10,0.00
2013-6-21,93.0,75.1,57.6,50.7,39.7,27.9,32,28,24,28.85,28.79,8,2,8,0.00
2013-6-22,95.9,77.8,60.4,53.3,41.5,29.9,32,28,24,28.82,28.70,12,3,12,0.00
2013-6-23,76.6,67.4,59.9,44.1,37.9,31.0,46,34,28,28.79,28.73,16,7,16,0.00
2013-6-24,69.4,65.9,63.5,50.7,45.9,41.1,57,49,37,28.85,28.70,8,2,8,0.24
2013-6-25,75.0,69.9,65.7,61.6,51.2,43.2,79,52,36,28.91,28.82,12,2,12,0.20
2013-6-26,90.1,76.4,65.5,54.7,47.8,39.3,62,39,25,28.97,28.88,13,3,13,0.00
2013-6-27,99.3,81.0,65.5,54.8,47.5,39.8,52,32,23,28.97,28.91,9,2,9,0.00
2013-6-28,107.1,87.4,71.2,60.2,49.0,39.2,42,27,22,28.91,28.79,9,2,9,0.00
2013-6-29,109.6,91.4,75.2,62.2,50.4,40.3,30,25,22,28.82,28.70,8,3,8,0.00
2013-6-30,109.9,91.4,73.0,62.5,50.3,38.8,31,25,22,28.73,28.64,8,2,8,0.00
2013-7-1,109.4,90.7,71.8,62.1,50.1,38.6,31,25,22,28.73,28.67,7,2,7,0.00
2013-7-2,106.5,89.8,77.2,59.4,49.3,41.9,30,25,22,28.79,28.67,4,2,3,0.00
2013-7-3,108.0,87.2,71.2,60.9,47.5,37.3,29,26,22,28.79,28.64,3,2,3,0.00
2013-7-4,111.2,91.5,76.1,63.6,51.2,42.4,33,26,22,28.64,28.53,3,3,3,0.00
2013-7-5,91.9,78.6,66.6,50.5,42.1,34.1,30,27,24,28.64,28.56,3,3,3,0.00
2013-7-6,78.3,64.9,59.7,42.3,36.7,34.0,44,36,28,28.67,28.58,3,3,3,0.00
2013-7-7,97.9,86.9,71.2,53.9,47.4,37.2,35,26,23,28.70,28.64,5,0,8,0.00
2013-7-8,98.1,78.5,60.8,53.9,42.0,30.1,34,28,23,28.82,28.70,10,3,14,0.00
2013-7-9,106.9,85.2,65.3,59.9,46.3,33.5,33,26,22,28.88,28.79,8,2,8,0.00
2013-7-10,100.6,83.3,67.5,55.6,45.0,34.9,30,26,22,28.79,28.70,10,4,13,0.00
2013-7-11,94.3,76.0,59.0,51.9,40.6,30.3,34,28,24,28.76,28.67,13,5,13,0.00
2013-7-12,93.4,74.2,57.0,51.2,41.1,32.5,46,31,24,28.76,28.70,13,3,13,0.00
2013-7-13,98.4,79.8,61.7,54.2,42.9,30.7,34,27,23,28.79,28.73,12,3,12,0.00
2013-7-14,101.3,80.0,62.8,55.7,43.1,32.7,33,28,22,28.79,28.70,10,3,10,0.00
2013-7-15,91.4,73.0,58.5,50.5,39.2,31.0,37,30,24,28.73,28.61,13,5,13,0.00
2013-7-16,83.5,67.4,57.2,45.0,39.2,32.6,55,37,26,28.82,28.67,13,5,13,0.00
2013-7-17,95.9,74.3,58.5,53.3,43.3,35.6,54,35,24,28.88,28.79,8,3,8,0.00
2013-7-18,102.0,80.2,60.6,56.0,43.5,32.1,37,28,22,28.85,28.70,10,2,10,0.00
2013-7-19,104.4,87.9,63.5,57.9,47.8,32.3,35,25,22,28.73,28.61,10,3,10,0.04
2013-7-20,104.9,83.5,64.4,58.4,45.1,32.4,33,27,22,28.64,28.53,10,3,10,0.00
2013-7-21,97.0,80.5,66.2,53.9,43.4,34.5,32,27,23,28.67,28.56,13,4,13,0.00
2013-7-22,96.8,78.3,65.1,53.9,42.5,35.1,35,28,23,28.76,28.67,16,3,16,0.00
2013-7-23,95.0,79.2,68.4,52.4,42.5,35.6,30,27,24,28.79,28.67,12,4,12,0.00
2013-7-24,101.8,82.7,64.8,55.9,44.5,32.6,30,26,22,28.73,28.64,12,4,12,0.00
2013-7-25,102.2,83.8,68.4,56.2,45.7,37.3,32,27,22,28.73,28.67,12,4,12,0.00
2013-7-26,99.0,80.0,66.0,54.7,43.0,34.0,33,27,23,28.79,28.67,10,5,11,0.00
2013-7-27,94.6,77.2,61.0,52.2,42.0,34.0,39,29,24,28.70,28.56,10,5,10,0.00
2013-7-28,94.5,75.5,61.3,52.1,41.1,33.4,39,29,24,28.58,28.47,10,4,10,0.00
2013-7-29,87.1,69.1,56.7,48.0,38.6,33.1,47,34,26,28.70,28.53,12,4,12,0.00
2013-7-30,94.8,72.8,57.0,52.4,40.9,32.7,47,33,24,28.79,28.67,9,3,9,0.00
2013-7-31,91.6,72.8,58.3,50.5,39.2,31.3,39,30,24,28.73,28.61,9,5,12,0.00
2013-8-1,90.7,72.1,57.7,49.7,38.3,29.7,37,30,25,28.70,28.61,13,5,13,0.00
2013-8-2,97.2,76.1,57.9,53.9,41.1,29.5,39,29,23,28.61,28.53,9,3,9,0.00
2013-8-3,95.4,76.2,59.5,52.9,40.7,29.9,34,28,24,28.61,28.53,9,3,9,0.00
2013-8-4,93.0,73.9,58.5,50.9,40.2,32.4,44,30,24,28.61,28.56,9,4,9,0.00
2013-8-5,96.4,73.3,57.2,53.8,41.5,33.0,54,33,24,28.64,28.53,10,4,10,0.00
2013-8-6,90.1,69.8,56.7,49.6,38.8,31.4,49,33,25,28.64,28.56,13,5,13,0.00
2013-8-7,81.0,67.0,59.4,44.5,40.5,34.6,56,39,27,28.70,28.61,12,6,12,0.00
2013-8-8,88.2,69.6,58.6,48.5,41.1,33.1,55,37,25,28.64,28.50,12,4,12,0.00
2013-8-9,85.5,69.0,57.4,46.7,39.5,31.4,56,35,26,28.58,28.50,13,4,13,0.00
2013-8-10,90.9,71.1,58.8,50.2,41.4,33.8,55,36,25,28.61,28.53,12,4,12,0.00
2013-8-11,94.1,74.1,59.4,51.8,42.2,35.5,47,33,24,28.58,28.50,9,3,9,0.00
2013-8-12,94.1,75.6,60.4,51.6,40.9,31.9,36,29,24,28.56,28.50,12,4,12,0.00
2013-8-13,100.2,79.7,61.3,55.7,42.7,30.4,31,27,23,28.58,28.47,10,2,10,0.00
2013-8-14,100.6,79.5,62.1,55.8,42.5,31.0,31,27,22,28.53,28.44,10,3,10,0.00
2013-8-15,97.7,78.5,63.5,53.9,42.7,33.7,36,28,23,28.53,28.47,12,4,12,0.00
2013-8-16,100.4,81.0,65.5,55.7,44.9,35.5,38,29,23,28.56,28.47,12,4,12,0.00
2013-8-17,100.0,80.2,66.0,55.6,43.6,33.7,32,28,23,28.53,28.38,15,3,15,0.00
2013-8-18,102.4,83.4,65.8,56.3,46.8,39.3,42,29,22,28.44,28.32,6,2,6,0.00
2013-8-19,106.3,88.0,76.6,59.6,49.1,41.5,30,27,22,28.44,28.29,13,2,13,0.00
2013-8-20,100.8,81.1,68.0,55.7,45.0,38.0,37,29,22,28.38,17.72,12,5,12,0.00
2013-8-21,95.0,75.9,63.1,52.4,41.9,34.5,38,30,24,28.32,17.72,12,5,12,0.00
2013-8-22,89.2,72.5,61.0,48.8,41.2,36.6,41,33,25,28.32,28.32,10,5,10,0.00
2013-8-23,93.7,72.4,57.0,51.5,41.3,34.8,49,34,24,28.32,17.72,9,4,9,0.00
2013-8-24,88.5,73.3,61.2,48.5,39.7,32.5,35,30,25,28.32,28.32,15,6,15,0.00
2013-8-25,90.0,73.7,63.3,49.4,43.9,35.9,54,36,25,28.32,17.72,12,5,12,0.00
2013-8-26,92.5,73.8,61.9,50.5,43.5,34.3,54,36,24,28.32,17.72,13,4,13,0.00
2013-8-27,97.2,77.0,62.8,53.9,41.3,32.1,33,28,23,28.32,28.32,12,3,12,0.00
2013-8-28,95.4,76.6,62.8,52.9,41.6,32.6,36,29,24,28.97,28.32,10,4,10,0.00
2013-8-29,97.0,77.2,62.2,53.9,43.8,35.6,44,31,23,29.09,28.97,10,4,10,0.00
2013-8-30,101.3,80.1,63.9,55.4,43.7,34.2,35,28,22,29.09,28.97,8,2,8,0.00
2013-8-31,97.9,80.4,67.1,53.9,43.3,34.6,30,27,23,29.00,28.94,12,4,12,0.00
2013-9-1,92.1,76.8,65.5,50.5,41.0,33.0,30,28,24,29.00,28.91,13,5,13,0.00
2013-9-2,77.8,71.0,67.3,54.2,42.8,37.3,52,37,29,29.03,28.94,9,2,9,0.08
2013-9-3,88.5,73.0,63.5,48.5,42.2,33.3,46,34,25,29.03,28.97,12,4,12,0.00
2013-9-4,91.4,73.0,61.7,50.3,40.6,33.4,44,32,24,29.06,28.97,10,5,10,0.00
2013-9-5,89.1,72.0,59.9,48.5,39.6,32.5,44,31,25,29.06,28.97,10,4,11,0.00
2013-9-6,98.2,76.8,59.2,54.1,41.2,29.3,36,28,23,29.03,28.88,6,1,6,0.00
2013-9-7,101.1,82.9,69.4,55.7,44.7,36.1,30,26,22,28.97,28.85,9,2,9,0.00
2013-9-8,101.8,83.6,67.5,55.9,45.1,34.9,30,26,22,28.91,28.82,8,2,8,0.00
2013-9-9,102.9,84.7,69.3,56.6,45.8,36.1,30,26,22,28.85,28.73,9,2,9,0.00
2013-9-10,91.4,75.8,64.0,50.5,41.3,33.5,44,29,25,28.94,28.76,10,4,11,0.00
2013-9-11,84.9,69.7,62.4,46.4,42.4,36.6,54,39,26,29.03,28.94,12,5,12,0.00
2013-9-12,91.6,73.7,61.9,50.5,44.6,37.5,55,37,24,29.03,28.91,8,4,8,0.00
2013-9-13,94.5,75.7,62.6,52.1,42.9,35.5,46,32,24,28.94,28.76,9,3,9,0.00
2013-9-14,90.9,73.6,60.6,50.2,39.9,32.9,39,30,25,28.85,28.76,10,4,10,0.00
2013-9-15,89.1,70.8,57.9,48.7,38.2,30.2,39,31,25,28.91,28.79,10,5,10,0.00
2013-9-16,90.7,72.7,60.6,49.9,41.5,33.2,47,33,25,28.94,28.82,12,4,12,0.00
2013-9-17,85.1,69.0,58.3,46.2,37.6,32.2,47,32,26,28.94,28.85,15,4,15,0.00
2013-9-18,90.7,71.2,56.7,50.0,37.3,27.1,35,29,25,28.94,28.85,8,2,8,0.00
2013-9-19,93.7,75.1,60.8,51.5,39.7,29.9,31,28,24,28.91,28.79,9,2,9,0.00
2013-9-20,82.6,70.8,63.1,44.9,38.6,32.0,44,31,27,28.94,28.79,13,5,13,0.00
2013-9-21,68.7,63.0,58.6,52.2,42.2,34.5,68,47,32,28.94,28.88,21,3,21,0.39
2013-9-22,79.2,64.9,55.9,42.8,38.1,31.6,55,39,27,29.03,28.94,6,2,6,0.00
2013-9-23,88.3,69.3,56.5,48.5,37.5,30.0,42,32,25,29.06,28.97,9,2,9,0.00
2013-9-24,80.1,67.5,58.8,42.9,36.6,31.3,44,32,27,29.03,28.91,16,6,16,0.00
2013-9-25,79.5,63.9,55.4,42.8,35.4,28.3,48,35,27,28.94,28.85,10,3,11,0.00
2013-9-26,79.9,64.3,52.3,42.9,32.1,22.4,33,30,27,29.00,28.82,12,5,12,0.00
2013-9-27,85.1,66.0,51.6,46.4,32.8,22.6,34,29,26,29.12,29.00,9,2,9,0.00
2013-9-28,86.2,70.2,58.3,47.3,36.5,26.9,32,29,26,29.15,29.06,10,4,10,0.00
2013-9-29,78.8,66.8,57.7,43.4,36.4,28.7,47,33,28,29.18,29.09,14,6,14,0.00
2013-9-30,79.2,68.4,62.6,46.7,42.1,37.7,52,39,27,29.15,29.00,10,3,10,0.00
2013-10-1,81.9,67.0,56.3,47.5,38.5,29.4,57,36,27,29.06,28.97,9,3,11,0.00
2013-10-2,84.4,66.9,56.7,45.7,35.3,29.1,40,31,26,29.03,28.97,9,2,9,0.00
2013-10-3,80.6,64.8,49.3,43.4,32.7,21.9,34,30,27,29.06,28.94,15,5,15,0.00
2013-10-4,89.1,68.8,55.8,48.7,34.6,24.6,32,28,25,29.15,29.03,9,2,9,0.00
2013-10-5,87.8,70.5,57.7,48.5,36.0,25.7,31,28,26,29.26,29.15,8,2,8,0.00
2013-10-6,88.9,71.6,60.1,48.5,36.9,27.7,31,28,25,29.18,29.06,8,2,8,0.00
2013-10-7,89.2,72.2,61.3,48.8,37.3,28.8,31,28,25,29.06,28.94,9,2,9,0.00
2013-10-8,79.2,66.5,56.3,42.8,33.4,25.2,32,29,27,28.94,28.73,8,2,8,0.00
2013-10-9,77.0,61.7,52.0,41.4,30.8,23.7,33,31,28,28.82,28.64,9,3,9,0.00
2013-10-10,74.0,62.0,53.8,39.0,31.1,25.3,33,31,28,29.06,28.79,13,4,13,0.00
2013-10-11,80.1,64.7,53.2,43.1,32.9,24.8,33,30,27,29.12,29.00,9,3,9,0.00
2013-10-12,77.2,63.9,53.6,41.5,32.3,25.2,33,31,28,29.06,28.91,12,3,12,0.00
2013-10-13,80.8,63.7,50.9,43.7,32.4,24.0,39,31,27,29.09,28.94,8,2,8,0.00
2013-10-14,82.2,65.3,51.6,44.9,33.2,22.9,34,30,27,29.18,29.06,8,2,8,0.00
2013-10-15,86.0,67.8,55.4,47.1,34.5,26.0,32,29,26,29.09,29.00,8,2,8,0.00
2013-10-16,84.2,68.7,58.3,45.6,34.8,26.1,31,29,26,29.18,29.06,12,3,12,0.00
2013-10-17,86.9,69.3,57.6,47.9,35.4,25.5,32,29,26,29.12,29.03,6,2,6,0.00
2013-10-18,85.5,69.1,57.7,46.7,35.2,25.7,32,29,26,29.12,29.03,8,2,8,0.00
2013-10-19,88.9,71.4,59.4,48.5,37.3,27.1,32,29,25,29.15,29.06,8,2,8,0.00
2013-10-20,87.6,70.4,59.2,48.5,36.2,26.9,32,29,26,29.06,28.97,9,2,9,0.00
2013-10-21,87.6,70.8,58.8,48.5,37.0,29.0,32,29,26,29.06,28.97,7,2,7,0.00
2013-10-22,89.2,71.5,59.5,48.8,37.1,27.2,31,29,25,29.06,28.97,7,1,7,0.00
2013-10-23,87.8,70.6,59.4,48.5,36.2,27.0,32,28,25,29.00,28.94,8,1,8,0.00
2013-10-24,75.0,62.1,50.9,39.7,30.9,23.5,35,31,28,29.12,28.97,8,2,8,0.00
2013-10-25,82.2,63.9,49.3,44.9,33.4,24.5,44,32,27,29.20,29.12,6,2,6,0.00
2013-10-26,85.3,68.1,57.4,46.5,35.1,27.7,32,30,26,29.20,29.06,6,2,6,0.00
2013-10-27,75.2,61.7,52.7,39.8,31.1,25.2,38,32,28,29.06,28.67,20,8,20,0.00
2013-10-28,60.8,55.0,48.9,36.2,29.6,25.0,57,39,31,28.91,28.67,12,6,12,0.00
2013-10-29,66.2,56.7,51.4,33.8,27.6,24.5,36,33,30,29.09,28.91,10,4,10,0.00
2013-10-30,71.6,57.2,47.1,37.6,28.0,20.2,37,33,29,29.18,29.06,8,3,8,0.00
2013-10-31,71.1,58.9,48.6,37.2,29.0,21.4,36,32,29,29.20,29.12,9,2,9,0.00
2013-11-1,79.7,64.0,54.0,42.8,32.3,25.5,33,31,27,29.20,29.09,8,2,8,0.00
2013-11-2,76.5,63.9,56.1,40.9,31.8,25.1,34,30,28,29.09,28.94,8,2,8,0.00
2013-11-3,66.0,54.6,45.7,33.7,24.8,18.7,35,31,28,29.06,28.94,9,3,9,0.00
2013-11-4,72.0,55.9,41.4,38.0,25.8,16.4,36,31,28,29.09,28.91,9,3,9,0.00
2013-11-5,69.3,57.1,45.3,36.3,26.2,17.1,34,30,28,29.26,29.09,9,2,9,0.00
2013-11-6,75.7,61.9,51.3,40.3,30.2,22.4,34,30,28,29.32,29.24,8,2,8,0.00
2013-11-7,77.4,64.2,55.9,41.5,31.4,24.9,32,29,28,29.24,29.12,8,2,8,0.00
2013-11-8,77.5,64.0,54.5,41.8,31.7,23.7,32,30,28,29.12,29.03,6,1,8,0.00
2013-11-9,77.2,63.7,54.1,41.5,32.1,25.6,33,31,28,29.09,29.03,8,2,6,0.00
2013-11-10,75.9,63.4,54.7,40.5,31.7,24.8,33,30,28,29.15,29.09,7,2,7,0.00
2013-11-11,74.1,60.8,48.0,39.0,29.5,20.4,34,30,28,29.24,29.12,8,1,8,0.00
2013-11-12,75.0,62.6,57.6,39.5,30.8,25.5,32,30,28,29.29,29.18,10,1,11,0.00
2013-11-13,79.2,63.9,53.8,42.6,32.3,25.3,33,31,27,29.26,29.12,8,1,8,0.00
2013-11-14,68.9,60.1,51.6,36.2,30.1,25.8,39,32,30,29.15,28.88,7,2,7,0.00
2013-11-15,70.0,56.5,47.1,36.8,28.3,20.4,48,34,28,28.88,28.76,8,1,8,0.00
2013-11-16,63.9,53.9,46.8,32.5,25.2,19.8,34,33,28,28.97,28.79,10,2,10,0.00
2013-11-17,65.5,54.5,46.8,33.2,26.6,20.2,39,34,30,29.12,28.97,8,2,8,0.00
2013-11-18,65.7,54.7,49.6,33.4,27.3,23.7,44,35,30,29.18,29.12,12,3,12,0.00
2013-11-19,61.9,56.2,50.7,42.9,34.0,29.5,58,44,34,29.15,29.00,9,1,9,0.35
2013-11-20,58.5,57.2,55.4,56.1,50.2,41.5,93,78,56,29.03,28.88,12,4,12,0.39
2013-11-21,68.4,56.2,50.2,51.3,36.5,20.8,85,53,28,29.03,28.91,20,4,20,0.04
2013-11-22,71.1,57.8,47.8,37.2,28.1,19.3,57,33,28,29.09,28.97,20,6,20,0.00
2013-11-23,64.2,53.7,47.8,37.4,30.2,22.2,58,42,31,29.15,29.03,8,1,8,0.00
2013-11-24,66.2,53.9,45.9,33.8,26.5,21.0,41,35,30,29.26,29.15,6,2,6,0.00
2013-11-25,66.6,54.3,46.8,34.1,26.5,21.8,42,34,30,29.35,29.26,6,1,6,0.00
2013-11-26,65.7,54.5,47.7,33.4,27.4,23.3,44,35,30,29.29,29.09,6,1,6,0.00
2013-11-27,70.0,56.8,49.5,36.8,28.5,24.4,41,34,29,29.09,28.91,6,1,6,0.00
2013-11-28,71.8,59.9,53.1,37.8,29.1,22.9,33,31,29,29.12,28.91,8,3,8,0.00
2013-11-29,73.6,59.3,51.3,39.0,29.1,23.6,34,32,28,29.26,29.12,8,3,8,0.00
2013-11-30,71.1,58.1,51.4,37.0,28.3,23.6,34,32,29,29.29,29.24,6,1,6,0.00
2013-12-1,68.5,57.0,49.8,35.9,27.6,22.5,36,32,30,29.38,29.26,6,2,6,0.00
2013-12-2,67.5,56.5,51.1,35.9,29.3,23.6,51,36,30,29.26,28.97,15,4,15,0.00
2013-12-3,57.4,49.9,37.0,44.9,25.6,11.2,63,40,29,28.97,28.85,17,6,17,0.00
2013-12-4,50.5,39.0,29.7,21.0,12.8,5.3,38,34,31,29.09,28.91,8,2,8,0.00
2013-12-5,51.1,38.9,30.2,21.5,13.0,7.3,38,34,31,29.18,29.06,8,1,8,0.00
2013-12-6,46.8,39.5,33.4,28.7,15.4,8.7,61,38,32,29.20,28.97,17,6,17,0.20
2013-12-7,46.2,39.5,32.7,32.1,21.5,11.0,72,49,35,29.24,28.94,17,5,17,0.08
2013-12-8,47.3,35.5,28.0,18.9,11.5,6.0,43,37,32,29.32,29.20,8,2,8,0.00
2013-12-9,48.6,37.7,28.6,19.5,14.6,9.6,52,39,31,29.44,29.29,8,2,8,0.00
2013-12-10,53.1,42.2,33.4,23.0,16.0,10.2,38,34,31,29.44,29.24,6,2,6,0.00
2013-12-11,61.2,46.6,36.3,29.9,19.6,12.7,39,34,29,29.29,29.24,8,1,8,0.00
2013-12-12,63.3,49.0,38.5,32.1,21.2,13.8,36,33,28,29.29,29.20,8,1,8,0.00
2013-12-13,63.3,49.2,39.4,29.7,21.0,13.1,36,33,28,29.35,29.24,6,1,6,0.00
2013-12-14,63.9,50.6,42.4,32.6,22.7,17.0,37,33,28,29.44,29.35,8,2,8,0.00
2013-12-15,63.0,51.4,42.4,31.8,23.7,17.0,38,34,29,29.41,29.29,6,1,6,0.00
2013-12-16,64.6,53.0,43.7,32.9,25.9,19.9,40,35,30,29.29,29.20,8,1,8,0.00
2013-12-17,68.2,55.6,48.4,35.5,28.7,24.5,41,36,30,29.24,29.09,5,0,4,0.00
2013-12-18,63.1,53.7,48.2,33.0,29.5,25.7,53,40,31,29.09,28.76,8,2,8,0.00
2013-12-19,63.3,51.2,41.5,34.6,27.0,14.5,56,40,28,28.94,28.73,13,3,13,0.00
2013-12-20,58.5,45.7,34.5,26.3,18.8,10.9,40,34,29,29.06,28.91,6,1,6,0.00
2013-12-21,61.9,50.0,42.3,30.9,23.9,19.2,46,36,29,29.15,29.00,7,0,7,0.00
2013-12-22,63.9,51.5,43.7,32.6,25.0,19.8,40,36,31,29.32,29.15,6,1,6,0.00
2013-12-23,67.6,54.9,46.8,35.1,27.7,22.5,39,35,30,29.44,29.32,6,1,6,0.00
2013-12-24,65.3,53.6,46.2,33.0,27.3,22.5,42,36,30,29.35,29.26,6,1,6,0.00
2013-12-25,68.7,55.6,46.4,36.0,28.1,22.3,41,35,30,29.35,29.26,5,1,5,0.00
2013-12-26,68.4,56.1,48.0,35.7,26.5,18.9,34,32,28,29.32,29.24,8,1,8,0.00
2013-12-27,64.0,53.2,46.4,32.8,24.9,20.3,37,33,29,29.29,29.15,6,1,6,0.00
2013-12-28,67.3,53.6,43.3,34.8,24.4,16.4,40,32,28,29.15,29.06,8,2,8,0.00
2013-12-29,65.7,53.2,44.8,33.4,24.9,19.1,37,33,28,29.24,29.12,6,1,6,0.00
2013-12-30,65.7,54.2,45.9,33.4,25.2,18.4,35,32,28,29.29,29.20,6,1,6,0.00
2013-12-31,68.0,54.1,47.7,35.4,25.2,20.2,34,33,28,29.29,29.20,6,1,6,0.00
2014-1-1,64.9,53.3,45.7,32.7,24.1,19.5,35,32,28,29.26,29.18,8,1,8,0.00
2014-1-2,69.1,56.0,46.9,36.3,27.2,20.6,37,33,30,29.24,29.12,8,1,8,0.00